createdAt,value
2019-03-24T16:01:04.056Z,101535.11
2019-03-24T16:06:07.852Z,101535.20
2019-03-24T16:11:10.886Z,101526.53
2019-03-24T16:16:12.228Z,101529.28
2019-03-24T16:21:13.716Z,101519.42
2019-03-24T16:26:15.575Z,101514.97
2019-03-24T16:31:17.387Z,101508.33
2019-03-24T16:36:19.603Z,101509.66
2019-03-24T16:41:21.368Z,101506.03
2019-03-24T16:46:23.945Z,101492.52
2019-03-24T16:51:25.227Z,101498.88
2019-03-24T16:56:26.945Z,101494.52
2019-03-24T17:01:28.003Z,101498.93
2019-03-24T17:06:29.561Z,101487.33
2019-03-24T17:11:31.344Z,101491.49
2019-03-24T17:16:34.848Z,101489.42
2019-03-24T17:21:49.297Z,101484.31
2019-03-24T17:26:45.821Z,101483.77
2019-03-24T17:31:47.278Z,101473.58
2019-03-24T17:36:48.959Z,101480.38
2019-03-24T17:41:50.541Z,101470.23
2019-03-24T17:46:52.545Z,101464.80
2019-03-24T17:52:00.755Z,101459.40
2019-03-24T17:56:58.417Z,101452.39
2019-03-24T18:02:01.449Z,101448.98
2019-03-24T18:07:02.803Z,101451.98
2019-03-24T18:12:06.583Z,101457.25
2019-03-24T18:17:08.463Z,101460.64
2019-03-24T18:22:11.750Z,101447.03
2019-03-24T18:27:12.886Z,101432.38
2019-03-24T18:32:15.169Z,101430.28
2019-03-24T18:37:24.715Z,101437.83
2019-03-24T18:42:27.668Z,101417.27
2019-03-24T18:47:29.686Z,101421.03
2019-03-24T18:52:31.316Z,101425.24
2019-03-24T18:57:32.953Z,101429.67
2019-03-24T19:02:35.318Z,101418.39
2019-03-24T19:07:36.515Z,101415.12
2019-03-24T19:12:37.938Z,101403.91
2019-03-24T19:17:39.196Z,101396.88
2019-03-24T19:22:40.458Z,101397.74
2019-03-24T19:27:41.618Z,101395.52
2019-03-24T19:32:45.149Z,101394.28
2019-03-24T19:37:46.792Z,101385.17
2019-03-24T19:42:48.084Z,101385.58
2019-03-24T19:47:49.339Z,101379.03
2019-03-24T19:52:51.091Z,101369.19
2019-03-24T19:57:52.717Z,101366.58
2019-03-24T20:02:54.139Z,101365.56
2019-03-24T20:07:55.911Z,101360.44
2019-03-24T20:12:58.886Z,101355.39
2019-03-24T20:18:02.310Z,101344.44
2019-03-24T20:23:03.528Z,101341.99
2019-03-24T20:28:05.114Z,101338.02
2019-03-24T20:33:06.511Z,101330.89
2019-03-24T20:38:08.879Z,101324.50
2019-03-24T20:43:10.252Z,101321.73
2019-03-24T20:48:11.783Z,101310.80
2019-03-24T20:53:18.466Z,101311.56
2019-03-24T20:58:17.961Z,101309.23
2019-03-24T21:03:19.242Z,101300.89
2019-03-24T21:08:22.257Z,101298.59
2019-03-24T21:13:23.430Z,101292.02
2019-03-24T21:18:24.509Z,101290.66
2019-03-24T21:23:29.716Z,101286.36
2019-03-24T21:28:30.245Z,101286.92
2019-03-24T21:33:31.809Z,101281.73
2019-03-24T21:38:33.066Z,101276.16
2019-03-24T21:43:34.133Z,101273.81
2019-03-24T21:48:37.095Z,101266.25
2019-03-24T21:53:40.826Z,101262.63
2019-03-24T21:58:41.675Z,101260.72
2019-03-24T22:03:42.957Z,101247.11
2019-03-24T22:08:44.153Z,101242.44
2019-03-24T22:13:45.708Z,101230.48
2019-03-24T22:18:47.176Z,101224.98
2019-03-24T22:23:52.514Z,101216.09
2019-03-24T22:28:51.864Z,101210.27
2019-03-24T22:33:53.012Z,101212.32
2019-03-24T22:38:55.145Z,101205.84
2019-03-24T22:43:56.578Z,101195.53
2019-03-24T22:48:58.634Z,101189.30
2019-03-24T22:54:03.523Z,101177.76
2019-03-24T22:59:03.022Z,101178.61
2019-03-24T23:04:04.616Z,101169.78
2019-03-24T23:09:08.091Z,101159.72
2019-03-24T23:14:10.608Z,101159.63
2019-03-24T23:19:11.664Z,101144.63
2019-03-24T23:24:15.795Z,101144.63
2019-03-24T23:29:16.529Z,101139.71
2019-03-24T23:34:19.505Z,101130.39
2019-03-24T23:39:20.839Z,101116.05
2019-03-24T23:44:22.410Z,101110.50
2019-03-24T23:49:23.589Z,101104.28
2019-03-24T23:54:27.699Z,101094.52
2019-03-24T23:59:29.068Z,101092.99
